sensor_id;sensor_type;location;lat;lon;timestamp;temperature;humidity
27384;DHT22;14851;51.166;4.760;2023-12-20T00:01:29;6.70;99.90
27384;DHT22;14851;51.166;4.760;2023-12-20T00:03:55;6.70;99.90
27384;DHT22;14851;51.166;4.760;2023-12-20T00:06:26;6.70;99.90
27384;DHT22;14851;51.166;4.760;2023-12-20T00:08:52;6.70;99.90
27384;DHT22;14851;51.166;4.760;2023-12-20T00:11:19;6.70;99.90
27384;DHT22;14851;51.166;4.760;2023-12-20T00:13:45;6.70;99.90
27384;DHT22;14851;51.166;4.760;2023-12-20T00:16:11;6.80;99.90
27384;DHT22;14851;51.166;4.760;2023-12-20T00:18:37;6.80;99.90
27384;DHT22;14851;51.166;4.760;2023-12-20T00:21:03;6.80;99.90
27384;DHT22;14851;51.166;4.760;2023-12-20T00:23:30;6.80;99.90
27384;DHT22;14851;51.166;4.760;2023-12-20T00:25:56;6.70;99.90
27384;DHT22;14851;51.166;4.760;2023-12-20T00:28:22;6.70;99.90
27384;DHT22;14851;51.166;4.760;2023-12-20T00:30:48;6.70;99.90
27384;DHT22;14851;51.166;4.760;2023-12-20T00:33:14;6.70;99.90
27384;DHT22;14851;51.166;4.760;2023-12-20T00:35:43;6.70;99.90
27384;DHT22;14851;51.166;4.760;2023-12-20T00:38:09;6.70;99.90
27384;DHT22;14851;51.166;4.760;2023-12-20T00:40:35;6.70;99.90
27384;DHT22;14851;51.166;4.760;2023-12-20T00:43:02;6.60;99.90
27384;DHT22;14851;51.166;4.760;2023-12-20T00:45:28;6.60;99.90
27384;DHT22;14851;51.166;4.760;2023-12-20T00:47:54;6.50;99.90
27384;DHT22;14851;51.166;4.760;2023-12-20T00:50:21;6.50;99.90
27384;DHT22;14851;51.166;4.760;2023-12-20T00:52:48;6.50;99.90
27384;DHT22;14851;51.166;4.760;2023-12-20T00:55:18;6.50;99.90
27384;DHT22;14851;51.166;4.760;2023-12-20T00:57:44;6.40;99.90
27384;DHT22;14851;51.166;4.760;2023-12-20T01:00:11;6.40;99.90
27384;DHT22;14851;51.166;4.760;2023-12-20T01:02:39;6.30;99.90
27384;DHT22;14851;51.166;4.760;2023-12-20T01:05:06;6.30;99.90
27384;DHT22;14851;51.166;4.760;2023-12-20T01:07:33;6.30;99.90
27384;DHT22;14851;51.166;4.760;2023-12-20T01:09:59;6.30;99.90
27384;DHT22;14851;51.166;4.760;2023-12-20T01:12:26;6.30;99.90
27384;DHT22;14851;51.166;4.760;2023-12-20T01:14:51;6.20;99.90
27384;DHT22;14851;51.166;4.760;2023-12-20T01:17:18;6.20;99.90
27384;DHT22;14851;51.166;4.760;2023-12-20T01:19:44;6.20;99.90
27384;DHT22;14851;51.166;4.760;2023-12-20T01:22:12;6.20;99.90
27384;DHT22;14851;51.166;4.760;2023-12-20T01:24:42;6.10;99.90
27384;DHT22;14851;51.166;4.760;2023-12-20T01:27:11;6.10;99.90
27384;DHT22;14851;51.166;4.760;2023-12-20T01:29:37;6.10;99.90
27384;DHT22;14851;51.166;4.760;2023-12-20T01:32:04;6.10;99.90
27384;DHT22;14851;51.166;4.760;2023-12-20T01:34:31;6.10;99.90
27384;DHT22;14851;51.166;4.760;2023-12-20T01:36:57;6.10;99.90
27384;DHT22;14851;51.166;4.760;2023-12-20T01:39:23;6.10;99.90
27384;DHT22;14851;51.166;4.760;2023-12-20T01:41:49;6.10;99.90
27384;DHT22;14851;51.166;4.760;2023-12-20T01:44:15;6.00;99.90
27384;DHT22;14851;51.166;4.760;2023-12-20T01:46:41;6.00;99.90
27384;DHT22;14851;51.166;4.760;2023-12-20T01:49:08;6.00;99.90
27384;DHT22;14851;51.166;4.760;2023-12-20T01:51:34;6.00;99.90
27384;DHT22;14851;51.166;4.760;2023-12-20T01:54:02;6.00;99.90
27384;DHT22;14851;51.166;4.760;2023-12-20T01:56:29;6.00;99.90
27384;DHT22;14851;51.166;4.760;2023-12-20T01:58:56;6.00;99.90
27384;DHT22;14851;51.166;4.760;2023-12-20T02:01:26;6.00;99.90
27384;DHT22;14851;51.166;4.760;2023-12-20T02:03:55;6.00;99.90
27384;DHT22;14851;51.166;4.760;2023-12-20T02:06:22;6.00;99.90
27384;DHT22;14851;51.166;4.760;2023-12-20T02:08:50;6.00;99.90
27384;DHT22;14851;51.166;4.760;2023-12-20T02:11:18;6.00;99.90
27384;DHT22;14851;51.166;4.760;2023-12-20T02:13:49;6.00;99.90
27384;DHT22;14851;51.166;4.760;2023-12-20T02:16:17;5.90;99.90
27384;DHT22;14851;51.166;4.760;2023-12-20T02:18:47;5.90;99.90
27384;DHT22;14851;51.166;4.760;2023-12-20T02:21:12;5.90;99.90
27384;DHT22;14851;51.166;4.760;2023-12-20T02:23:39;5.90;99.90
27384;DHT22;14851;51.166;4.760;2023-12-20T02:26:05;5.90;99.90
27384;DHT22;14851;51.166;4.760;2023-12-20T02:28:32;6.00;99.90
27384;DHT22;14851;51.166;4.760;2023-12-20T02:30:58;6.00;99.90
27384;DHT22;14851;51.166;4.760;2023-12-20T02:33:24;6.00;99.90
27384;DHT22;14851;51.166;4.760;2023-12-20T02:35:50;6.00;99.90
27384;DHT22;14851;51.166;4.760;2023-12-20T02:38:16;6.10;99.90
27384;DHT22;14851;51.166;4.760;2023-12-20T02:40:42;6.10;99.90
27384;DHT22;14851;51.166;4.760;2023-12-20T02:43:08;6.10;99.90
27384;DHT22;14851;51.166;4.760;2023-12-20T02:45:34;6.10;99.90
27384;DHT22;14851;51.166;4.760;2023-12-20T02:48:02;6.10;99.90
27384;DHT22;14851;51.166;4.760;2023-12-20T02:50:28;6.10;99.90
27384;DHT22;14851;51.166;4.760;2023-12-20T02:52:54;6.10;99.90
27384;DHT22;14851;51.166;4.760;2023-12-20T02:55:20;6.10;99.90
27384;DHT22;14851;51.166;4.760;2023-12-20T02:57:47;6.00;99.90
27384;DHT22;14851;51.166;4.760;2023-12-20T03:00:13;6.00;99.90
27384;DHT22;14851;51.166;4.760;2023-12-20T03:02:40;6.00;99.90
27384;DHT22;14851;51.166;4.760;2023-12-20T03:05:07;6.00;99.90
27384;DHT22;14851;51.166;4.760;2023-12-20T03:07:33;6.00;99.90
27384;DHT22;14851;51.166;4.760;2023-12-20T03:09:59;6.00;99.90
27384;DHT22;14851;51.166;4.760;2023-12-20T03:12:25;6.00;99.90
27384;DHT22;14851;51.166;4.760;2023-12-20T03:14:51;6.00;99.90
27384;DHT22;14851;51.166;4.760;2023-12-20T03:17:17;6.00;99.90
27384;DHT22;14851;51.166;4.760;2023-12-20T03:19:44;6.00;99.90
27384;DHT22;14851;51.166;4.760;2023-12-20T03:22:10;6.10;99.90
27384;DHT22;14851;51.166;4.760;2023-12-20T03:24:39;6.10;99.90
27384;DHT22;14851;51.166;4.760;2023-12-20T03:27:05;6.10;99.90
27384;DHT22;14851;51.166;4.760;2023-12-20T03:29:31;6.10;99.90
27384;DHT22;14851;51.166;4.760;2023-12-20T03:31:57;6.10;99.90
27384;DHT22;14851;51.166;4.760;2023-12-20T03:34:24;6.10;99.90
27384;DHT22;14851;51.166;4.760;2023-12-20T03:36:50;6.10;99.90
27384;DHT22;14851;51.166;4.760;2023-12-20T03:39:16;6.10;99.90
27384;DHT22;14851;51.166;4.760;2023-12-20T03:41:42;6.10;99.90
27384;DHT22;14851;51.166;4.760;2023-12-20T03:44:09;6.10;99.90
27384;DHT22;14851;51.166;4.760;2023-12-20T03:46:35;6.10;99.90
27384;DHT22;14851;51.166;4.760;2023-12-20T03:49:01;6.10;99.90
27384;DHT22;14851;51.166;4.760;2023-12-20T03:51:27;6.10;99.90
27384;DHT22;14851;51.166;4.760;2023-12-20T03:53:53;6.10;99.90
27384;DHT22;14851;51.166;4.760;2023-12-20T03:56:20;6.10;99.90
27384;DHT22;14851;51.166;4.760;2023-12-20T03:58:46;6.10;99.90
27384;DHT22;14851;51.166;4.760;2023-12-20T04:01:13;6.10;99.90
27384;DHT22;14851;51.166;4.760;2023-12-20T04:03:39;6.10;99.90
27384;DHT22;14851;51.166;4.760;2023-12-20T04:06:06;6.10;99.90
27384;DHT22;14851;51.166;4.760;2023-12-20T04:08:32;6.10;99.90
27384;DHT22;14851;51.166;4.760;2023-12-20T04:10:58;6.10;99.90
27384;DHT22;14851;51.166;4.760;2023-12-20T04:13:24;6.10;99.90
27384;DHT22;14851;51.166;4.760;2023-12-20T04:15:50;6.10;99.90
27384;DHT22;14851;51.166;4.760;2023-12-20T04:18:18;6.10;99.90
27384;DHT22;14851;51.166;4.760;2023-12-20T04:20:44;6.10;99.90
27384;DHT22;14851;51.166;4.760;2023-12-20T04:23:10;6.10;99.90
27384;DHT22;14851;51.166;4.760;2023-12-20T04:25:37;6.10;99.90
27384;DHT22;14851;51.166;4.760;2023-12-20T04:28:03;6.10;99.90
27384;DHT22;14851;51.166;4.760;2023-12-20T04:30:29;6.10;99.90
27384;DHT22;14851;51.166;4.760;2023-12-20T04:32:56;6.10;99.90
27384;DHT22;14851;51.166;4.760;2023-12-20T04:35:23;6.10;99.90
27384;DHT22;14851;51.166;4.760;2023-12-20T04:37:49;6.10;99.90
27384;DHT22;14851;51.166;4.760;2023-12-20T04:40:15;6.10;99.90
27384;DHT22;14851;51.166;4.760;2023-12-20T04:42:41;6.10;99.90
27384;DHT22;14851;51.166;4.760;2023-12-20T04:45:08;6.00;99.90
27384;DHT22;14851;51.166;4.760;2023-12-20T04:47:34;6.00;99.90
27384;DHT22;14851;51.166;4.760;2023-12-20T04:50:00;6.00;99.90
27384;DHT22;14851;51.166;4.760;2023-12-20T04:52:30;6.00;99.90
27384;DHT22;14851;51.166;4.760;2023-12-20T04:54:56;6.00;99.90
27384;DHT22;14851;51.166;4.760;2023-12-20T04:57:23;6.00;99.90
27384;DHT22;14851;51.166;4.760;2023-12-20T04:59:49;6.00;99.90
27384;DHT22;14851;51.166;4.760;2023-12-20T05:02:15;6.00;99.90
27384;DHT22;14851;51.166;4.760;2023-12-20T05:04:42;6.00;99.90
27384;DHT22;14851;51.166;4.760;2023-12-20T05:07:08;6.00;99.90
27384;DHT22;14851;51.166;4.760;2023-12-20T05:09:34;6.00;99.90
27384;DHT22;14851;51.166;4.760;2023-12-20T05:12:00;6.00;99.90
27384;DHT22;14851;51.166;4.760;2023-12-20T05:14:26;6.00;99.90
27384;DHT22;14851;51.166;4.760;2023-12-20T05:16:52;6.00;99.90
27384;DHT22;14851;51.166;4.760;2023-12-20T05:19:19;6.00;99.90
27384;DHT22;14851;51.166;4.760;2023-12-20T05:21:45;6.00;99.90
27384;DHT22;14851;51.166;4.760;2023-12-20T05:24:11;6.00;99.90
27384;DHT22;14851;51.166;4.760;2023-12-20T05:26:37;6.00;99.90
27384;DHT22;14851;51.166;4.760;2023-12-20T05:29:06;6.00;99.90
27384;DHT22;14851;51.166;4.760;2023-12-20T05:31:32;6.00;99.90
27384;DHT22;14851;51.166;4.760;2023-12-20T05:33:58;5.90;99.90
27384;DHT22;14851;51.166;4.760;2023-12-20T05:36:24;5.90;99.90
27384;DHT22;14851;51.166;4.760;2023-12-20T05:38:50;5.90;99.90
27384;DHT22;14851;51.166;4.760;2023-12-20T05:41:17;5.90;99.90
27384;DHT22;14851;51.166;4.760;2023-12-20T05:43:43;5.90;99.90
27384;DHT22;14851;51.166;4.760;2023-12-20T05:46:10;5.90;99.90
27384;DHT22;14851;51.166;4.760;2023-12-20T05:48:37;5.90;99.90
27384;DHT22;14851;51.166;4.760;2023-12-20T05:51:04;5.80;99.90
27384;DHT22;14851;51.166;4.760;2023-12-20T05:53:30;5.80;99.90
27384;DHT22;14851;51.166;4.760;2023-12-20T05:55:56;5.80;99.90
27384;DHT22;14851;51.166;4.760;2023-12-20T05:58:23;5.80;99.90
27384;DHT22;14851;51.166;4.760;2023-12-20T06:00:49;5.80;99.90
27384;DHT22;14851;51.166;4.760;2023-12-20T06:03:15;5.80;99.90
27384;DHT22;14851;51.166;4.760;2023-12-20T06:05:41;5.80;99.90
27384;DHT22;14851;51.166;4.760;2023-12-20T06:08:07;5.80;99.90
27384;DHT22;14851;51.166;4.760;2023-12-20T06:10:33;5.80;99.90
27384;DHT22;14851;51.166;4.760;2023-12-20T06:13:00;5.80;99.90
27384;DHT22;14851;51.166;4.760;2023-12-20T06:15:26;5.80;99.90
27384;DHT22;14851;51.166;4.760;2023-12-20T06:17:52;5.80;99.90
27384;DHT22;14851;51.166;4.760;2023-12-20T06:20:18;5.80;99.90
27384;DHT22;14851;51.166;4.760;2023-12-20T06:22:44;5.80;99.90
27384;DHT22;14851;51.166;4.760;2023-12-20T06:25:10;5.80;99.90
27384;DHT22;14851;51.166;4.760;2023-12-20T06:27:36;5.80;99.90
27384;DHT22;14851;51.166;4.760;2023-12-20T06:30:03;5.80;99.90
27384;DHT22;14851;51.166;4.760;2023-12-20T06:32:29;5.80;99.90
27384;DHT22;14851;51.166;4.760;2023-12-20T06:34:56;5.70;99.90
27384;DHT22;14851;51.166;4.760;2023-12-20T06:37:24;5.70;99.90
27384;DHT22;14851;51.166;4.760;2023-12-20T06:39:50;5.70;99.90
27384;DHT22;14851;51.166;4.760;2023-12-20T06:42:17;5.70;99.90
27384;DHT22;14851;51.166;4.760;2023-12-20T06:44:43;5.70;99.90
27384;DHT22;14851;51.166;4.760;2023-12-20T06:47:11;5.70;99.90
27384;DHT22;14851;51.166;4.760;2023-12-20T06:49:40;5.60;99.90
27384;DHT22;14851;51.166;4.760;2023-12-20T06:52:06;5.60;99.90
27384;DHT22;14851;51.166;4.760;2023-12-20T06:54:32;5.60;99.90
27384;DHT22;14851;51.166;4.760;2023-12-20T06:57:00;5.70;99.90
27384;DHT22;14851;51.166;4.760;2023-12-20T06:59:29;5.70;99.90
27384;DHT22;14851;51.166;4.760;2023-12-20T07:01:55;5.80;99.90
27384;DHT22;14851;51.166;4.760;2023-12-20T07:04:21;5.90;99.90
27384;DHT22;14851;51.166;4.760;2023-12-20T07:06:48;5.90;99.90
27384;DHT22;14851;51.166;4.760;2023-12-20T07:09:16;5.90;99.90
27384;DHT22;14851;51.166;4.760;2023-12-20T07:11:43;5.90;99.90
27384;DHT22;14851;51.166;4.760;2023-12-20T07:14:09;5.90;99.90
27384;DHT22;14851;51.166;4.760;2023-12-20T07:16:35;5.90;99.90
27384;DHT22;14851;51.166;4.760;2023-12-20T07:19:02;6.00;99.90
27384;DHT22;14851;51.166;4.760;2023-12-20T07:21:28;6.00;99.90
27384;DHT22;14851;51.166;4.760;2023-12-20T07:23:54;6.00;99.90
27384;DHT22;14851;51.166;4.760;2023-12-20T07:26:20;6.00;99.90
27384;DHT22;14851;51.166;4.760;2023-12-20T07:28:46;6.00;99.90
27384;DHT22;14851;51.166;4.760;2023-12-20T07:31:12;6.00;99.90
27384;DHT22;14851;51.166;4.760;2023-12-20T07:33:40;6.00;99.90
27384;DHT22;14851;51.166;4.760;2023-12-20T07:36:07;6.00;99.90
27384;DHT22;14851;51.166;4.760;2023-12-20T07:38:36;6.00;99.90
27384;DHT22;14851;51.166;4.760;2023-12-20T07:41:02;6.00;99.90
27384;DHT22;14851;51.166;4.760;2023-12-20T07:43:29;6.00;99.90
27384;DHT22;14851;51.166;4.760;2023-12-20T07:46:01;6.00;99.90
27384;DHT22;14851;51.166;4.760;2023-12-20T07:48:29;5.90;99.90
27384;DHT22;14851;51.166;4.760;2023-12-20T07:50:55;5.90;99.90
27384;DHT22;14851;51.166;4.760;2023-12-20T07:53:22;5.90;99.90
27384;DHT22;14851;51.166;4.760;2023-12-20T07:55:48;5.90;99.90
27384;DHT22;14851;51.166;4.760;2023-12-20T07:58:14;5.80;99.90
27384;DHT22;14851;51.166;4.760;2023-12-20T08:00:41;5.80;99.90
27384;DHT22;14851;51.166;4.760;2023-12-20T08:03:07;5.80;99.90
27384;DHT22;14851;51.166;4.760;2023-12-20T08:05:33;5.80;99.90
27384;DHT22;14851;51.166;4.760;2023-12-20T08:07:59;5.90;99.90
27384;DHT22;14851;51.166;4.760;2023-12-20T08:10:25;5.90;99.90
27384;DHT22;14851;51.166;4.760;2023-12-20T08:12:53;5.90;99.90
27384;DHT22;14851;51.166;4.760;2023-12-20T08:15:19;5.90;99.90
27384;DHT22;14851;51.166;4.760;2023-12-20T08:17:45;5.90;99.90
27384;DHT22;14851;51.166;4.760;2023-12-20T08:20:11;5.90;99.90
27384;DHT22;14851;51.166;4.760;2023-12-20T08:22:41;5.90;99.90
27384;DHT22;14851;51.166;4.760;2023-12-20T08:25:07;5.90;99.90
27384;DHT22;14851;51.166;4.760;2023-12-20T08:27:39;5.90;99.90
27384;DHT22;14851;51.166;4.760;2023-12-20T08:30:09;5.90;99.90
27384;DHT22;14851;51.166;4.760;2023-12-20T08:32:36;5.90;99.90
27384;DHT22;14851;51.166;4.760;2023-12-20T08:35:02;5.90;99.90
27384;DHT22;14851;51.166;4.760;2023-12-20T08:37:29;5.90;99.90
27384;DHT22;14851;51.166;4.760;2023-12-20T08:39:56;5.90;99.90
27384;DHT22;14851;51.166;4.760;2023-12-20T08:42:22;5.90;99.90
27384;DHT22;14851;51.166;4.760;2023-12-20T08:44:50;5.80;99.90
27384;DHT22;14851;51.166;4.760;2023-12-20T08:47:16;5.80;99.90
27384;DHT22;14851;51.166;4.760;2023-12-20T08:49:43;5.80;99.90
27384;DHT22;14851;51.166;4.760;2023-12-20T08:52:09;5.90;99.90
27384;DHT22;14851;51.166;4.760;2023-12-20T08:54:36;5.90;99.90
27384;DHT22;14851;51.166;4.760;2023-12-20T08:57:02;5.90;99.90
27384;DHT22;14851;51.166;4.760;2023-12-20T08:59:28;5.90;99.90
27384;DHT22;14851;51.166;4.760;2023-12-20T09:01:54;5.90;99.90
27384;DHT22;14851;51.166;4.760;2023-12-20T09:04:21;5.90;99.90
27384;DHT22;14851;51.166;4.760;2023-12-20T09:06:48;5.90;99.90
27384;DHT22;14851;51.166;4.760;2023-12-20T09:09:19;5.90;99.90
27384;DHT22;14851;51.166;4.760;2023-12-20T09:11:51;6.00;99.90
27384;DHT22;14851;51.166;4.760;2023-12-20T09:14:18;6.10;99.90
27384;DHT22;14851;51.166;4.760;2023-12-20T09:16:44;6.10;99.90
27384;DHT22;14851;51.166;4.760;2023-12-20T09:19:11;6.20;99.90
27384;DHT22;14851;51.166;4.760;2023-12-20T09:21:37;6.20;99.90
27384;DHT22;14851;51.166;4.760;2023-12-20T09:24:03;6.20;99.90
27384;DHT22;14851;51.166;4.760;2023-12-20T09:26:30;6.20;99.90
27384;DHT22;14851;51.166;4.760;2023-12-20T09:28:56;6.30;99.90
27384;DHT22;14851;51.166;4.760;2023-12-20T09:31:22;6.30;99.90
27384;DHT22;14851;51.166;4.760;2023-12-20T09:33:49;6.30;99.90
27384;DHT22;14851;51.166;4.760;2023-12-20T09:36:15;6.30;99.90
27384;DHT22;14851;51.166;4.760;2023-12-20T09:38:41;6.40;99.90
27384;DHT22;14851;51.166;4.760;2023-12-20T09:41:08;6.40;99.90
27384;DHT22;14851;51.166;4.760;2023-12-20T09:43:37;6.40;99.90
27384;DHT22;14851;51.166;4.760;2023-12-20T09:46:06;6.40;99.90
27384;DHT22;14851;51.166;4.760;2023-12-20T09:48:36;6.40;99.90
27384;DHT22;14851;51.166;4.760;2023-12-20T09:51:03;6.50;99.90
27384;DHT22;14851;51.166;4.760;2023-12-20T09:53:31;6.50;99.90
27384;DHT22;14851;51.166;4.760;2023-12-20T09:56:01;6.50;99.90
27384;DHT22;14851;51.166;4.760;2023-12-20T09:58:28;6.50;99.90
27384;DHT22;14851;51.166;4.760;2023-12-20T10:00:55;6.50;99.90
27384;DHT22;14851;51.166;4.760;2023-12-20T10:03:25;6.50;99.90
27384;DHT22;14851;51.166;4.760;2023-12-20T10:05:54;6.60;99.90
27384;DHT22;14851;51.166;4.760;2023-12-20T10:08:22;6.60;99.90
27384;DHT22;14851;51.166;4.760;2023-12-20T10:10:48;6.60;99.90
27384;DHT22;14851;51.166;4.760;2023-12-20T10:13:18;6.70;99.90
27384;DHT22;14851;51.166;4.760;2023-12-20T10:15:44;6.60;99.90
27384;DHT22;14851;51.166;4.760;2023-12-20T10:18:12;6.70;99.90
27384;DHT22;14851;51.166;4.760;2023-12-20T10:20:41;6.80;99.90
27384;DHT22;14851;51.166;4.760;2023-12-20T10:23:08;6.80;99.90
27384;DHT22;14851;51.166;4.760;2023-12-20T10:25:35;6.80;99.90
27384;DHT22;14851;51.166;4.760;2023-12-20T10:28:12;6.80;99.90
27384;DHT22;14851;51.166;4.760;2023-12-20T10:30:40;6.80;99.90
27384;DHT22;14851;51.166;4.760;2023-12-20T10:33:07;6.90;99.90
27384;DHT22;14851;51.166;4.760;2023-12-20T10:35:37;6.90;99.90
27384;DHT22;14851;51.166;4.760;2023-12-20T10:38:05;6.90;99.90
27384;DHT22;14851;51.166;4.760;2023-12-20T10:40:36;7.00;99.90
27384;DHT22;14851;51.166;4.760;2023-12-20T10:43:03;7.00;99.90
27384;DHT22;14851;51.166;4.760;2023-12-20T10:45:34;7.00;99.90
27384;DHT22;14851;51.166;4.760;2023-12-20T10:48:04;7.00;99.90
27384;DHT22;14851;51.166;4.760;2023-12-20T10:50:31;7.00;99.90
27384;DHT22;14851;51.166;4.760;2023-12-20T10:53:00;7.10;99.90
27384;DHT22;14851;51.166;4.760;2023-12-20T10:55:29;7.00;99.90
27384;DHT22;14851;51.166;4.760;2023-12-20T10:58:00;7.00;99.90
27384;DHT22;14851;51.166;4.760;2023-12-20T11:00:28;7.00;99.90
27384;DHT22;14851;51.166;4.760;2023-12-20T11:02:55;7.00;99.90
27384;DHT22;14851;51.166;4.760;2023-12-20T11:05:54;7.00;99.90
27384;DHT22;14851;51.166;4.760;2023-12-20T11:08:27;7.00;99.90
27384;DHT22;14851;51.166;4.760;2023-12-20T11:13:53;7.00;99.90
27384;DHT22;14851;51.166;4.760;2023-12-20T11:16:20;7.00;99.90
27384;DHT22;14851;51.166;4.760;2023-12-20T11:18:46;7.00;99.90
27384;DHT22;14851;51.166;4.760;2023-12-20T11:21:12;7.00;99.90
27384;DHT22;14851;51.166;4.760;2023-12-20T11:23:42;7.10;99.90
27384;DHT22;14851;51.166;4.760;2023-12-20T11:26:08;7.00;99.90
27384;DHT22;14851;51.166;4.760;2023-12-20T11:28:40;7.10;99.90
27384;DHT22;14851;51.166;4.760;2023-12-20T11:31:06;7.00;99.90
27384;DHT22;14851;51.166;4.760;2023-12-20T11:33:37;7.00;99.90
27384;DHT22;14851;51.166;4.760;2023-12-20T11:36:12;7.00;99.90
27384;DHT22;14851;51.166;4.760;2023-12-20T11:38:39;7.00;99.90
27384;DHT22;14851;51.166;4.760;2023-12-20T11:41:15;7.00;99.90
27384;DHT22;14851;51.166;4.760;2023-12-20T11:43:44;7.00;99.90
27384;DHT22;14851;51.166;4.760;2023-12-20T11:46:11;7.00;99.90
27384;DHT22;14851;51.166;4.760;2023-12-20T11:48:38;7.00;99.90
27384;DHT22;14851;51.166;4.760;2023-12-20T11:51:12;7.00;99.90
27384;DHT22;14851;51.166;4.760;2023-12-20T11:53:42;7.10;99.90
27384;DHT22;14851;51.166;4.760;2023-12-20T11:56:09;7.10;99.90
27384;DHT22;14851;51.166;4.760;2023-12-20T11:58:35;7.10;99.90
27384;DHT22;14851;51.166;4.760;2023-12-20T12:01:05;7.20;99.90
27384;DHT22;14851;51.166;4.760;2023-12-20T12:03:33;7.20;99.90
27384;DHT22;14851;51.166;4.760;2023-12-20T12:05:59;7.20;99.90
27384;DHT22;14851;51.166;4.760;2023-12-20T12:08:26;7.20;99.90
27384;DHT22;14851;51.166;4.760;2023-12-20T12:10:53;7.20;99.90
27384;DHT22;14851;51.166;4.760;2023-12-20T12:13:19;7.30;99.90
27384;DHT22;14851;51.166;4.760;2023-12-20T12:15:46;7.20;99.90
27384;DHT22;14851;51.166;4.760;2023-12-20T12:18:16;7.20;99.90
27384;DHT22;14851;51.166;4.760;2023-12-20T12:20:42;7.30;99.90
27384;DHT22;14851;51.166;4.760;2023-12-20T12:23:08;7.30;99.90
27384;DHT22;14851;51.166;4.760;2023-12-20T12:25:37;7.30;99.90
27384;DHT22;14851;51.166;4.760;2023-12-20T12:28:04;7.30;99.90
27384;DHT22;14851;51.166;4.760;2023-12-20T12:30:30;7.30;99.90
27384;DHT22;14851;51.166;4.760;2023-12-20T12:32:59;7.40;99.90
27384;DHT22;14851;51.166;4.760;2023-12-20T12:35:25;7.40;99.90
27384;DHT22;14851;51.166;4.760;2023-12-20T12:37:51;7.40;99.90
27384;DHT22;14851;51.166;4.760;2023-12-20T12:40:18;7.40;99.90
27384;DHT22;14851;51.166;4.760;2023-12-20T12:42:45;7.40;99.90
27384;DHT22;14851;51.166;4.760;2023-12-20T12:45:12;7.50;99.90
27384;DHT22;14851;51.166;4.760;2023-12-20T12:47:38;7.50;99.90
27384;DHT22;14851;51.166;4.760;2023-12-20T12:50:05;7.50;99.90
27384;DHT22;14851;51.166;4.760;2023-12-20T12:52:31;7.50;99.90
27384;DHT22;14851;51.166;4.760;2023-12-20T12:54:57;7.50;99.90
27384;DHT22;14851;51.166;4.760;2023-12-20T12:57:23;7.50;99.90
27384;DHT22;14851;51.166;4.760;2023-12-20T12:59:50;7.50;99.90
27384;DHT22;14851;51.166;4.760;2023-12-20T13:02:16;7.60;99.90
27384;DHT22;14851;51.166;4.760;2023-12-20T13:04:43;7.60;99.90
27384;DHT22;14851;51.166;4.760;2023-12-20T13:07:11;7.70;99.90
27384;DHT22;14851;51.166;4.760;2023-12-20T13:09:41;7.70;99.90
27384;DHT22;14851;51.166;4.760;2023-12-20T13:12:08;7.70;99.90
27384;DHT22;14851;51.166;4.760;2023-12-20T13:14:34;7.80;99.90
27384;DHT22;14851;51.166;4.760;2023-12-20T13:17:02;7.80;99.90
27384;DHT22;14851;51.166;4.760;2023-12-20T13:19:29;7.80;99.90
27384;DHT22;14851;51.166;4.760;2023-12-20T13:21:56;7.80;99.90
27384;DHT22;14851;51.166;4.760;2023-12-20T13:24:24;7.80;99.90
27384;DHT22;14851;51.166;4.760;2023-12-20T13:26:50;7.90;99.90
27384;DHT22;14851;51.166;4.760;2023-12-20T13:29:16;7.90;99.90
27384;DHT22;14851;51.166;4.760;2023-12-20T13:31:44;7.90;99.90
27384;DHT22;14851;51.166;4.760;2023-12-20T13:34:10;7.90;99.90
27384;DHT22;14851;51.166;4.760;2023-12-20T13:36:39;7.90;99.90
27384;DHT22;14851;51.166;4.760;2023-12-20T13:39:05;7.90;99.90
27384;DHT22;14851;51.166;4.760;2023-12-20T13:41:32;7.90;99.90
27384;DHT22;14851;51.166;4.760;2023-12-20T13:43:59;7.90;99.90
27384;DHT22;14851;51.166;4.760;2023-12-20T13:46:25;8.00;99.90
27384;DHT22;14851;51.166;4.760;2023-12-20T13:48:51;7.90;99.90
27384;DHT22;14851;51.166;4.760;2023-12-20T13:51:17;7.90;99.90
27384;DHT22;14851;51.166;4.760;2023-12-20T13:53:47;8.00;99.90
27384;DHT22;14851;51.166;4.760;2023-12-20T13:56:14;8.00;99.90
27384;DHT22;14851;51.166;4.760;2023-12-20T13:58:40;8.00;99.90
27384;DHT22;14851;51.166;4.760;2023-12-20T14:01:10;8.00;99.90
27384;DHT22;14851;51.166;4.760;2023-12-20T14:03:37;7.90;99.90
27384;DHT22;14851;51.166;4.760;2023-12-20T14:06:03;7.90;99.90
27384;DHT22;14851;51.166;4.760;2023-12-20T14:08:30;8.00;99.90
27384;DHT22;14851;51.166;4.760;2023-12-20T14:10:56;8.00;99.90
27384;DHT22;14851;51.166;4.760;2023-12-20T14:13:22;8.00;99.90
27384;DHT22;14851;51.166;4.760;2023-12-20T14:15:48;8.00;99.90
27384;DHT22;14851;51.166;4.760;2023-12-20T14:18:15;8.00;99.90
27384;DHT22;14851;51.166;4.760;2023-12-20T14:20:41;8.10;99.90
27384;DHT22;14851;51.166;4.760;2023-12-20T14:23:08;8.10;99.90
27384;DHT22;14851;51.166;4.760;2023-12-20T14:25:38;8.20;99.90
27384;DHT22;14851;51.166;4.760;2023-12-20T14:28:04;8.20;99.90
27384;DHT22;14851;51.166;4.760;2023-12-20T14:30:31;8.20;99.90
27384;DHT22;14851;51.166;4.760;2023-12-20T14:32:57;8.20;99.90
27384;DHT22;14851;51.166;4.760;2023-12-20T14:35:24;8.20;99.90
27384;DHT22;14851;51.166;4.760;2023-12-20T14:37:50;8.20;99.90
27384;DHT22;14851;51.166;4.760;2023-12-20T14:40:16;8.20;99.90
27384;DHT22;14851;51.166;4.760;2023-12-20T14:42:43;8.20;99.90
27384;DHT22;14851;51.166;4.760;2023-12-20T14:45:10;8.20;99.90
27384;DHT22;14851;51.166;4.760;2023-12-20T14:47:36;8.20;99.90
27384;DHT22;14851;51.166;4.760;2023-12-20T14:50:06;8.20;99.90
27384;DHT22;14851;51.166;4.760;2023-12-20T14:52:36;8.20;99.90
27384;DHT22;14851;51.166;4.760;2023-12-20T14:55:03;8.20;99.90
27384;DHT22;14851;51.166;4.760;2023-12-20T14:57:30;8.20;99.90
27384;DHT22;14851;51.166;4.760;2023-12-20T14:59:56;8.30;99.90
27384;DHT22;14851;51.166;4.760;2023-12-20T15:02:25;8.20;99.90
27384;DHT22;14851;51.166;4.760;2023-12-20T15:04:51;8.10;99.90
27384;DHT22;14851;51.166;4.760;2023-12-20T15:07:17;8.10;99.90
27384;DHT22;14851;51.166;4.760;2023-12-20T15:09:43;8.10;99.90
27384;DHT22;14851;51.166;4.760;2023-12-20T15:12:14;8.10;99.90
27384;DHT22;14851;51.166;4.760;2023-12-20T15:14:41;8.10;99.90
27384;DHT22;14851;51.166;4.760;2023-12-20T15:17:06;8.10;99.90
27384;DHT22;14851;51.166;4.760;2023-12-20T15:19:35;8.10;99.90
27384;DHT22;14851;51.166;4.760;2023-12-20T15:22:01;8.10;99.90
27384;DHT22;14851;51.166;4.760;2023-12-20T15:24:30;8.10;99.90
27384;DHT22;14851;51.166;4.760;2023-12-20T15:27:05;8.10;99.90
27384;DHT22;14851;51.166;4.760;2023-12-20T15:29:31;8.10;99.90
27384;DHT22;14851;51.166;4.760;2023-12-20T15:31:57;8.10;99.90
27384;DHT22;14851;51.166;4.760;2023-12-20T15:34:26;8.10;99.90
27384;DHT22;14851;51.166;4.760;2023-12-20T15:36:52;8.10;99.90
27384;DHT22;14851;51.166;4.760;2023-12-20T15:39:18;8.10;99.90
27384;DHT22;14851;51.166;4.760;2023-12-20T15:41:44;8.10;99.90
27384;DHT22;14851;51.166;4.760;2023-12-20T15:44:11;8.10;99.90
27384;DHT22;14851;51.166;4.760;2023-12-20T15:46:38;8.10;99.90